Time;durP1;ratioP1;P1;durP2;ratioP2;P2;SDS_P1;SDS_P2;PMS_P1;PMS_P2;Temp;Humidity;BMP_temperature;BMP_pressure;BME280_temperature;BME280_humidity;BME280_pressure;Samples;Min_cycle;Max_cycle;Signal;HPM_P1;HPM_P2
2021/10/14 00:00:36;;;;;;;20.10;12.18;;;;;;;;;;4301552;33;20128;-74
2021/10/14 00:03:10;;;;;;;23.30;13.35;;;;;;;;;;4288284;33;20219;-74
2021/10/14 00:05:36;;;;;;;20.48;12.77;;;;;;;;;;4301508;33;20549;-74
2021/10/14 00:08:01;;;;;;;24.15;14.57;;;;;;;;;;4301564;33;20136;-74
2021/10/14 00:10:35;;;;;;;22.85;14.23;;;;;;;;;;4301201;33;20158;-76
2021/10/14 00:13:03;;;;;;;29.05;15.32;;;;;;;;;;4301999;33;20163;-73
2021/10/14 00:15:53;;;;;;;29.08;14.25;;;;;;;;;;4297273;33;20140;-74
2021/10/14 00:21:34;;;;;;;31.70;15.98;;;;;;;;;;4290417;33;20215;-74
2021/10/14 00:24:03;;;;;;;31.85;16.80;;;;;;;;;;4301069;33;20594;-74
2021/10/14 00:26:36;;;;;;;32.45;18.02;;;;;;;;;;4301032;33;20132;-74
2021/10/14 00:29:02;;;;;;;34.55;19.62;;;;;;;;;;4287499;33;20578;-74
2021/10/14 00:31:27;;;;;;;33.80;19.27;;;;;;;;;;4300988;33;20129;-74
2021/10/14 00:33:54;;;;;;;31.92;17.40;;;;;;;;;;4287871;33;20215;-74
2021/10/14 00:36:20;;;;;;;32.90;18.25;;;;;;;;;;4287776;33;20179;-74
2021/10/14 00:39:10;;;;;;;38.78;18.95;;;;;;;;;;4300797;33;20175;-74
2021/10/14 00:41:52;;;;;;;35.35;18.10;;;;;;;;;;4301548;33;20544;-74
2021/10/14 00:44:56;;;;;;;36.63;19.30;;;;;;;;;;4287589;33;20514;-75
2021/10/14 00:47:49;;;;;;;43.97;20.77;;;;;;;;;;4241090;33;20169;-75
2021/10/14 00:50:32;;;;;;;35.55;20.25;;;;;;;;;;4243481;33;20285;-75
2021/10/14 00:53:16;;;;;;;37.22;19.70;;;;;;;;;;4290177;33;20187;-74
2021/10/14 00:55:47;;;;;;;35.67;21.27;;;;;;;;;;4289154;33;20653;-75
2021/10/14 00:58:35;;;;;;;41.17;20.92;;;;;;;;;;4300819;33;20625;-73
2021/10/14 01:01:10;;;;;;;43.08;23.58;;;;;;;;;;4287471;33;20460;-73
2021/10/14 01:03:36;;;;;;;42.75;20.48;;;;;;;;;;4295410;33;20609;-74
2021/10/14 01:06:26;;;;;;;41.20;21.73;;;;;;;;;;4290370;33;20280;-73
2021/10/14 01:09:00;;;;;;;42.47;21.95;;;;;;;;;;4295567;33;20184;-73
2021/10/14 01:11:35;;;;;;;40.03;21.00;;;;;;;;;;4290756;33;20298;-73
2021/10/14 01:14:08;;;;;;;38.67;20.58;;;;;;;;;;4289815;33;20148;-74
2021/10/14 01:17:10;;;;;;;39.28;19.73;;;;;;;;;;4297753;33;20188;-73
2021/10/14 01:22:32;;;;;;;51.22;24.48;;;;;;;;;;4290268;33;20168;-74
2021/10/14 01:25:00;;;;;;;46.15;22.23;;;;;;;;;;4289354;33;20625;-74
2021/10/14 01:27:27;;;;;;;46.95;22.52;;;;;;;;;;4289314;33;20187;-74
2021/10/14 01:30:04;;;;;;;47.22;22.10;;;;;;;;;;4302361;33;20158;-73
2021/10/14 01:32:33;;;;;;;48.40;21.65;;;;;;;;;;4289943;33;20178;-73
2021/10/14 01:34:58;;;;;;;48.78;20.62;;;;;;;;;;4302910;33;20159;-73
2021/10/14 01:37:23;;;;;;;46.00;21.42;;;;;;;;;;4302598;33;20145;-74
2021/10/14 01:39:55;;;;;;;48.53;23.75;;;;;;;;;;4289836;33;20153;-72
2021/10/14 01:42:23;;;;;;;43.78;20.92;;;;;;;;;;4302532;33;20199;-73
2021/10/14 01:44:55;;;;;;;52.45;22.55;;;;;;;;;;4289591;33;20219;-73
2021/10/14 01:47:20;;;;;;;54.83;24.42;;;;;;;;;;4289672;33;20203;-73
2021/10/14 01:49:45;;;;;;;56.88;22.73;;;;;;;;;;4289642;33;20184;-73
2021/10/14 01:52:20;;;;;;;52.58;22.52;;;;;;;;;;4302145;33;20140;-75
2021/10/14 01:54:45;;;;;;;52.40;21.80;;;;;;;;;;4289476;33;20349;-75
2021/10/14 01:57:30;;;;;;;;;;;;;;;;;;;;;
2021/10/14 02:00:12;;;;;;;58.00;23.58;;;;;;;;;;4303841;33;20167;-74
2021/10/14 02:03:02;;;;;;;66.47;26.27;;;;;;;;;;4302736;33;20133;-74
2021/10/14 02:05:28;;;;;;;61.90;24.35;;;;;;;;;;4302785;33;20175;-73
2021/10/14 02:08:11;;;;;;;61.55;26.35;;;;;;;;;;4286929;33;20169;-73
2021/10/14 02:13:49;;;;;;;69.95;26.73;;;;;;;;;;4257906;33;20276;-74
2021/10/14 02:19:37;;;;;;;64.75;23.83;;;;;;;;;;4300740;33;20211;-75
2021/10/14 02:28:06;;;;;;;65.62;26.58;;;;;;;;;;4228069;34;20204;-75
2021/10/14 02:30:32;;;;;;;60.97;25.90;;;;;;;;;;4248950;33;20200;-75
2021/10/14 02:32:58;;;;;;;68.97;27.00;;;;;;;;;;4273404;33;20557;-74
2021/10/14 02:35:23;;;;;;;59.42;26.48;;;;;;;;;;4273698;33;20168;-75
2021/10/14 02:40:52;;;;;;;65.47;25.95;;;;;;;;;;4229004;34;20184;-74
2021/10/14 02:43:22;;;;;;;71.60;29.00;;;;;;;;;;4217634;34;20636;-75
2021/10/14 02:45:59;;;;;;;63.87;26.70;;;;;;;;;;4229253;33;20165;-75
2021/10/14 02:48:40;;;;;;;;;;;;;;;;;;;;;
2021/10/14 02:51:06;;;;;;;58.53;24.52;;;;;;;;;;4237217;33;20451;-74
2021/10/14 02:53:51;;;;;;;66.40;25.48;;;;;;;;;;4287636;33;20167;-74
2021/10/14 02:56:27;;;;;;;64.97;27.62;;;;;;;;;;4257005;33;20215;-74
2021/10/14 02:59:21;;;;;;;57.70;25.55;;;;;;;;;;4272401;33;20216;-75
2021/10/14 03:01:55;;;;;;;63.13;27.08;;;;;;;;;;4274425;33;20212;-74
2021/10/14 03:04:21;;;;;;;58.95;26.65;;;;;;;;;;4274246;33;20195;-74
2021/10/14 03:06:49;;;;;;;68.93;27.62;;;;;;;;;;4286315;33;20164;-75
2021/10/14 03:09:15;;;;;;;58.25;24.55;;;;;;;;;;4286435;33;20224;-75
2021/10/14 03:11:42;;;;;;;66.95;26.73;;;;;;;;;;4287666;33;20161;-75
2021/10/14 03:14:08;;;;;;;70.97;29.48;;;;;;;;;;4285738;33;20187;-75
2021/10/14 03:16:42;;;;;;;66.93;29.23;;;;;;;;;;4287532;33;20137;-74
2021/10/14 03:19:31;;;;;;;62.20;25.83;;;;;;;;;;4281711;33;20613;-74
2021/10/14 03:21:56;;;;;;;64.30;25.02;;;;;;;;;;4292656;33;20641;-74
2021/10/14 03:24:22;;;;;;;67.22;26.95;;;;;;;;;;4288716;33;20187;-74
2021/10/14 03:26:54;;;;;;;69.10;29.15;;;;;;;;;;4301390;33;20585;-74
2021/10/14 03:32:08;;;;;;;70.07;28.52;;;;;;;;;;4293858;33;20164;-74
2021/10/14 03:34:52;;;;;;;;;;;;;;;;;;;;;
2021/10/14 03:37:52;;;;;;;;;;;;;;;;;;;;;
2021/10/14 03:40:28;;;;;;;59.67;26.17;;;;;;;;;;4301819;33;20571;-75
2021/10/14 03:42:53;;;;;;;67.35;29.52;;;;;;;;;;4288277;33;20156;-75
2021/10/14 03:45:26;;;;;;;68.72;29.17;;;;;;;;;;4288303;33;20616;-76
2021/10/14 03:48:00;;;;;;;74.72;29.73;;;;;;;;;;4301321;33;20150;-75
2021/10/14 03:50:46;;;;;;;78.87;30.05;;;;;;;;;;4299385;33;20219;-75
2021/10/14 03:53:27;;;;;;;58.65;28.17;;;;;;;;;;4284137;33;20558;-74
2021/10/14 03:55:53;;;;;;;70.82;29.02;;;;;;;;;;4285620;33;20227;-75
2021/10/14 03:58:56;;;;;;;68.95;32.78;;;;;;;;;;4285673;33;20582;-74
2021/10/14 04:01:30;;;;;;;67.80;30.52;;;;;;;;;;4285642;33;20164;-74
2021/10/14 04:04:18;;;;;;;63.95;30.95;;;;;;;;;;4285863;33;20221;-75
2021/10/14 04:07:16;;;;;;;70.20;30.95;;;;;;;;;;4285929;33;20168;-75
2021/10/14 04:09:46;;;;;;;64.85;30.83;;;;;;;;;;4292770;33;20656;-74
2021/10/14 04:12:54;;;;;;;;;;;;;;;;;;;;;
2021/10/14 04:15:20;;;;;;;68.97;32.33;;;;;;;;;;4275265;33;20464;-75
2021/10/14 04:18:10;;;;;;;;;;;;;;;;;;;;;
2021/10/14 04:21:26;;;;;;;71.25;32.08;;;;;;;;;;4302075;33;20543;-74
2021/10/14 04:24:45;;;;;;;67.85;31.52;;;;;;;;;;4273288;33;20211;-74
2021/10/14 04:27:41;;;;;;;65.22;30.50;;;;;;;;;;4286459;33;20172;-75
2021/10/14 04:35:45;;;;;;;56.60;27.50;;;;;;;;;;4231313;33;20196;-74
2021/10/14 04:38:20;;;;;;;62.53;28.77;;;;;;;;;;4231168;34;20162;-75
2021/10/14 04:41:23;;;;;;;64.90;29.25;;;;;;;;;;4233937;33;20647;-75
2021/10/14 04:47:08;;;;;;;61.58;30.95;;;;;;;;;;4236300;33;20180;-74
2021/10/14 04:49:45;;;;;;;62.40;27.60;;;;;;;;;;4221382;33;20173;-75
2021/10/14 04:52:35;;;;;;;67.32;31.23;;;;;;;;;;4274330;33;20160;-74
2021/10/14 04:58:18;;;;;;;53.70;25.33;;;;;;;;;;4270494;33;20199;-74
2021/10/14 05:00:43;;;;;;;59.45;29.40;;;;;;;;;;4275398;33;20133;-73
2021/10/14 05:03:11;;;;;;;63.08;29.35;;;;;;;;;;4275115;33;20142;-75
2021/10/14 05:09:45;;;;;;;60.17;27.83;;;;;;;;;;4251955;33;20201;-74
2021/10/14 05:11:48;;;;;;;66.03;30.20;;;;;;;;;;4239608;33;20161;-75
2021/10/14 05:14:14;;;;;;;61.37;31.02;;;;;;;;;;4244376;33;20153;-74
2021/10/14 05:16:42;;;;;;;65.78;31.65;;;;;;;;;;4232276;33;20256;-73
2021/10/14 05:19:19;;;;;;;71.15;30.70;;;;;;;;;;4244226;33;20176;-73
2021/10/14 05:21:55;;;;;;;;;;;;;;;;;;;;;
2021/10/14 05:24:22;;;;;;;73.95;31.70;;;;;;;;;;4258330;33;20173;-73
2021/10/14 05:26:47;;;;;;;70.20;33.38;;;;;;;;;;4258610;33;20203;-74
2021/10/14 05:29:21;;;;;;;77.18;31.70;;;;;;;;;;4274626;33;20138;-74
2021/10/14 05:31:51;;;;;;;71.37;33.78;;;;;;;;;;4274265;33;20176;-74
2021/10/14 05:34:17;;;;;;;74.90;32.55;;;;;;;;;;4288693;33;20184;-74
2021/10/14 05:37:22;;;;;;;80.20;36.47;;;;;;;;;;4288591;33;20166;-74
2021/10/14 05:39:56;;;;;;;81.63;33.58;;;;;;;;;;4288739;33;20267;-75
2021/10/14 05:42:40;;;;;;;86.57;36.35;;;;;;;;;;4275363;33;20212;-74
2021/10/14 05:45:58;;;;;;;80.53;34.90;;;;;;;;;;4289450;33;20170;-74
2021/10/14 05:48:16;;;;;;;83.43;33.95;;;;;;;;;;4287808;33;20199;-74
2021/10/14 05:50:55;;;;;;;83.30;34.63;;;;;;;;;;4289322;33;20185;-74
2021/10/14 05:53:20;;;;;;;79.93;35.28;;;;;;;;;;4287335;33;20563;-74
2021/10/14 05:55:47;;;;;;;70.87;33.58;;;;;;;;;;4275014;33;20222;-74
2021/10/14 05:58:13;;;;;;;77.78;35.70;;;;;;;;;;4288284;33;20156;-75
2021/10/14 06:00:53;;;;;;;88.55;34.05;;;;;;;;;;4275043;33;20192;-74
2021/10/14 06:03:18;;;;;;;89.03;36.05;;;;;;;;;;4274942;33;20156;-75
2021/10/14 06:05:46;;;;;;;95.97;37.35;;;;;;;;;;4294225;33;20168;-71
2021/10/14 06:08:12;;;;;;;88.05;33.33;;;;;;;;;;4287850;33;20203;-73
2021/10/14 06:10:37;;;;;;;85.87;34.90;;;;;;;;;;4287436;33;20145;-73
2021/10/14 06:13:12;;;;;;;99.43;37.25;;;;;;;;;;4287856;33;20146;-74
2021/10/14 06:15:39;;;;;;;97.40;36.75;;;;;;;;;;4287540;33;20238;-74
2021/10/14 06:18:05;;;;;;;91.82;34.58;;;;;;;;;;4274528;33;20168;-74
2021/10/14 06:20:30;;;;;;;91.87;34.92;;;;;;;;;;4287830;33;20192;-73
2021/10/14 06:22:57;;;;;;;88.00;35.47;;;;;;;;;;4293033;33;20215;-74
2021/10/14 06:25:30;;;;;;;84.28;35.92;;;;;;;;;;4302165;33;20152;-74
2021/10/14 06:28:03;;;;;;;94.75;36.92;;;;;;;;;;4289582;33;20183;-74
2021/10/14 06:33:24;;;;;;;93.68;36.97;;;;;;;;;;4286139;33;20212;-75
2021/10/14 06:35:52;;;;;;;80.97;35.88;;;;;;;;;;4302617;33;20215;-74
2021/10/14 06:38:21;;;;;;;78.12;33.88;;;;;;;;;;4289391;33;20194;-73
2021/10/14 06:40:49;;;;;;;84.40;35.35;;;;;;;;;;4301827;33;20256;-74
2021/10/14 06:43:38;;;;;;;79.37;31.85;;;;;;;;;;4302000;33;20546;-74
2021/10/14 06:46:03;;;;;;;75.18;34.25;;;;;;;;;;4301938;33;20259;-72
2021/10/14 06:48:35;;;;;;;78.07;34.00;;;;;;;;;;4289034;33;20167;-74
2021/10/14 06:51:11;;;;;;;;;;;;;;;;;;;;;
2021/10/14 06:53:36;;;;;;;79.65;31.42;;;;;;;;;;4302710;33;20198;-73
2021/10/14 06:56:31;;;;;;;80.22;34.75;;;;;;;;;;4302155;33;20137;-73
2021/10/14 06:59:06;;;;;;;80.93;34.53;;;;;;;;;;4301764;33;20222;-73
2021/10/14 07:01:34;;;;;;;75.50;31.70;;;;;;;;;;4301693;33;20144;-73
2021/10/14 07:04:00;;;;;;;72.20;31.12;;;;;;;;;;4288897;33;20556;-73
2021/10/14 07:06:28;;;;;;;77.60;33.08;;;;;;;;;;4288670;33;20168;-74
2021/10/14 07:09:02;;;;;;;82.65;33.78;;;;;;;;;;4286272;33;20169;-75
2021/10/14 07:11:52;;;;;;;73.72;32.45;;;;;;;;;;4287474;33;20244;-74
2021/10/14 07:14:17;;;;;;;67.12;30.48;;;;;;;;;;4274568;33;20713;-73
2021/10/14 07:16:45;;;;;;;72.70;32.22;;;;;;;;;;4285582;33;20177;-73
2021/10/14 07:19:14;;;;;;;72.85;32.22;;;;;;;;;;4274602;33;20179;-73
2021/10/14 07:22:06;;;;;;;70.32;31.52;;;;;;;;;;4285777;33;20195;-73
2021/10/14 07:28:08;;;;;;;;;;;;;;;;;;;;;
2021/10/14 07:30:54;;;;;;;;;;;;;;;;;;;;;
2021/10/14 07:39:28;;;;;;;48.65;24.80;;;;;;;;;;4287203;33;20192;-73
2021/10/14 07:41:54;;;;;;;46.50;23.90;;;;;;;;;;4285246;33;20211;-74
2021/10/14 07:44:39;;;;;;;38.75;21.50;;;;;;;;;;4290840;33;20152;-73
2021/10/14 07:47:15;;;;;;;39.97;21.25;;;;;;;;;;4288974;33;20231;-75
2021/10/14 07:49:56;;;;;;;44.33;21.52;;;;;;;;;;4288277;33;20203;-74
2021/10/14 07:52:30;;;;;;;36.65;18.62;;;;;;;;;;4274417;33;20183;-74
2021/10/14 07:54:56;;;;;;;44.75;22.08;;;;;;;;;;4300950;33;20148;-74
2021/10/14 07:57:23;;;;;;;41.83;21.12;;;;;;;;;;4300011;33;20246;-74
2021/10/14 07:59:48;;;;;;;39.03;19.90;;;;;;;;;;4299638;33;20153;-75
2021/10/14 08:02:20;;;;;;;37.95;19.33;;;;;;;;;;4287957;33;20150;-74
2021/10/14 08:04:48;;;;;;;39.95;19.95;;;;;;;;;;4301337;33;20140;-73
2021/10/14 08:07:13;;;;;;;40.80;19.55;;;;;;;;;;4287876;33;20207;-73
2021/10/14 08:09:38;;;;;;;40.83;19.70;;;;;;;;;;4287670;33;20269;-74
2021/10/14 08:12:04;;;;;;;32.42;17.48;;;;;;;;;;4283393;33;20273;-75
2021/10/14 08:14:35;;;;;;;30.60;16.75;;;;;;;;;;4301056;33;20137;-74
2021/10/14 08:17:33;;;;;;;29.87;16.25;;;;;;;;;;4287386;33;20149;-73
2021/10/14 08:20:32;;;;;;;31.15;15.45;;;;;;;;;;4271222;33;20165;-74
2021/10/14 08:23:02;;;;;;;26.35;14.13;;;;;;;;;;4284618;33;20210;-74
2021/10/14 08:25:27;;;;;;;28.25;15.18;;;;;;;;;;4274323;33;20181;-70
2021/10/14 08:28:19;;;;;;;26.87;14.75;;;;;;;;;;4299780;33;20188;-74
2021/10/14 08:31:02;;;;;;;27.05;13.80;;;;;;;;;;4244585;33;20177;-73
2021/10/14 08:33:35;;;;;;;24.63;14.68;;;;;;;;;;4300121;33;20246;-74
2021/10/14 08:36:32;;;;;;;30.92;14.73;;;;;;;;;;4285621;33;20388;-74
2021/10/14 08:39:03;;;;;;;22.80;13.85;;;;;;;;;;4281300;33;20177;-75
2021/10/14 08:41:40;;;;;;;26.33;13.80;;;;;;;;;;4286741;33;20133;-73
2021/10/14 08:47:26;;;;;;;;;;;;;;;;;;;;;
2021/10/14 08:53:10;;;;;;;26.27;15.88;;;;;;;;;;4256075;33;20164;-73
2021/10/14 08:55:43;;;;;;;32.22;21.45;;;;;;;;;;4299735;33;20163;-73
2021/10/14 08:58:48;;;;;;;33.90;24.33;;;;;;;;;;4286814;33;20164;-74
2021/10/14 09:01:20;;;;;;;110.75;99.15;;;;;;;;;;4214154;34;20193;-74
2021/10/14 09:03:48;;;;;;;179.15;161.52;;;;;;;;;;4226646;34;20154;-74
2021/10/14 09:06:55;;;;;;;64.22;57.38;;;;;;;;;;4246348;33;20235;-74
2021/10/14 09:09:18;;;;;;;56.63;50.70;;;;;;;;;;4282623;33;20172;-73
2021/10/14 09:11:53;;;;;;;157.70;144.02;;;;;;;;;;4285812;33;20223;-73
2021/10/14 09:23:17;;;;;;;23.92;15.23;;;;;;;;;;4264749;33;20169;-74
2021/10/14 09:25:50;;;;;;;23.25;14.98;;;;;;;;;;4260552;33;20177;-73
2021/10/14 09:28:22;;;;;;;23.73;14.23;;;;;;;;;;4260695;33;20203;-75
2021/10/14 09:30:58;;;;;;;23.52;14.73;;;;;;;;;;4274021;33;20157;-73
2021/10/14 09:34:06;;;;;;;26.52;15.90;;;;;;;;;;4274281;33;20172;-73
2021/10/14 09:36:38;;;;;;;18.33;12.73;;;;;;;;;;4232377;33;20196;-73
2021/10/14 09:39:19;;;;;;;17.75;12.88;;;;;;;;;;4242225;33;20532;-74
2021/10/14 09:41:45;;;;;;;24.40;14.50;;;;;;;;;;4258350;33;20206;-73
2021/10/14 09:44:17;;;;;;;21.00;13.35;;;;;;;;;;4288861;33;20535;-73
2021/10/14 09:47:14;;;;;;;19.40;13.43;;;;;;;;;;4275816;33;20257;-74
2021/10/14 09:50:07;;;;;;;18.87;13.07;;;;;;;;;;4283476;33;20191;-74
2021/10/14 09:52:44;;;;;;;20.88;13.52;;;;;;;;;;4285886;33;20648;-74
2021/10/14 09:55:19;;;;;;;;;;;;;;;;;;;;;
2021/10/14 09:58:13;;;;;;;15.77;11.02;;;;;;;;;;4288438;33;20152;-74
2021/10/14 10:01:04;;;;;;;;;;;;;;;;;;;;;
2021/10/14 10:03:50;;;;;;;16.98;9.43;;;;;;;;;;4288347;33;20153;-73
2021/10/14 10:06:35;;;;;;;14.82;9.13;;;;;;;;;;4284945;33;20245;-74
2021/10/14 10:09:21;;;;;;;;;;;;;;;;;;;;;
2021/10/14 10:11:51;;;;;;;18.12;8.65;;;;;;;;;;4288111;33;20645;-74
2021/10/14 10:14:22;;;;;;;16.02;9.02;;;;;;;;;;4275131;33;20632;-74
2021/10/14 10:16:53;;;;;;;15.88;7.97;;;;;;;;;;4287521;33;20492;-74
2021/10/14 10:19:40;;;;;;;23.52;9.32;;;;;;;;;;4286904;33;20161;-74
2021/10/14 10:22:11;;;;;;;15.15;8.48;;;;;;;;;;4287192;33;20152;-73
2021/10/14 10:24:36;;;;;;;12.93;7.70;;;;;;;;;;4288858;33;20164;-74
2021/10/14 10:27:32;;;;;;;14.65;6.68;;;;;;;;;;4289129;33;20210;-74
2021/10/14 10:29:58;;;;;;;19.08;6.35;;;;;;;;;;4302198;33;20585;-73
2021/10/14 10:32:45;;;;;;;;;;;;;;;;;;;;;
2021/10/14 10:35:18;;;;;;;12.80;5.50;;;;;;;;;;4302930;33;20145;-75
2021/10/14 10:37:45;;;;;;;11.70;7.95;;;;;;;;;;4288718;33;20593;-75
2021/10/14 10:40:46;;;;;;;10.48;5.25;;;;;;;;;;4289049;33;20582;-73
2021/10/14 10:46:08;;;;;;;21.42;4.22;;;;;;;;;;4228270;34;20153;-74
2021/10/14 10:48:35;;;;;;;8.63;3.45;;;;;;;;;;4254364;33;20511;-73
2021/10/14 10:51:28;;;;;;;8.98;3.20;;;;;;;;;;4260291;33;20226;-73
2021/10/14 10:54:14;;;;;;;13.00;3.78;;;;;;;;;;4301877;33;20218;-74
2021/10/14 10:56:40;;;;;;;5.85;3.10;;;;;;;;;;4301910;33;20203;-73
2021/10/14 11:02:09;;;;;;;6.10;3.03;;;;;;;;;;4301987;33;20151;-74
2021/10/14 11:08:31;;;;;;;5.70;3.30;;;;;;;;;;4238737;33;20727;-74
2021/10/14 11:11:17;;;;;;;6.18;3.72;;;;;;;;;;4265199;33;20273;-73
2021/10/14 11:13:47;;;;;;;6.32;3.05;;;;;;;;;;4288881;33;20208;-75
2021/10/14 11:16:20;;;;;;;4.50;3.40;;;;;;;;;;4288935;33;20203;-74
2021/10/14 11:18:58;;;;;;;9.48;3.58;;;;;;;;;;4288708;33;20215;-73
2021/10/14 11:21:27;;;;;;;7.32;3.40;;;;;;;;;;4301844;33;20136;-73
2021/10/14 11:23:59;;;;;;;5.00;3.10;;;;;;;;;;4301412;33;20153;-73
2021/10/14 11:26:39;;;;;;;6.47;3.40;;;;;;;;;;4301381;33;20184;-75
2021/10/14 11:29:28;;;;;;;9.13;3.60;;;;;;;;;;4288964;33;20215;-74
2021/10/14 11:32:03;;;;;;;14.35;4.80;;;;;;;;;;4301886;33;20163;-73
2021/10/14 11:34:37;;;;;;;13.25;4.62;;;;;;;;;;4301402;33;20438;-74
2021/10/14 11:37:09;;;;;;;11.38;4.18;;;;;;;;;;4301050;33;20175;-73
2021/10/14 11:39:34;;;;;;;13.05;4.20;;;;;;;;;;4301313;33;20492;-72
2021/10/14 11:42:09;;;;;;;11.38;3.85;;;;;;;;;;4301520;33;20136;-74
2021/10/14 11:44:41;;;;;;;6.35;3.87;;;;;;;;;;4301382;33;20136;-73
2021/10/14 11:47:12;;;;;;;6.70;3.85;;;;;;;;;;4289047;33;20494;-74
2021/10/14 11:49:37;;;;;;;8.65;4.20;;;;;;;;;;4273821;33;20234;-73
2021/10/14 11:52:03;;;;;;;5.22;3.70;;;;;;;;;;4286765;33;20555;-72
2021/10/14 11:57:28;;;;;;;7.85;3.87;;;;;;;;;;4287170;33;20220;-73
2021/10/14 12:00:07;;;;;;;7.03;3.00;;;;;;;;;;4273913;33;20191;-73
2021/10/14 12:02:33;;;;;;;11.30;5.45;;;;;;;;;;4287317;33;20137;-73
2021/10/14 12:05:00;;;;;;;6.60;3.87;;;;;;;;;;4273957;33;20501;-74
2021/10/14 12:07:43;;;;;;;5.12;3.80;;;;;;;;;;4286987;33;20141;-74
2021/10/14 12:10:32;;;;;;;5.50;4.28;;;;;;;;;;4273634;33;20164;-74
2021/10/14 12:13:08;;;;;;;9.05;4.90;;;;;;;;;;4274118;33;20196;-72
2021/10/14 12:15:37;;;;;;;12.75;4.97;;;;;;;;;;4287516;33;20577;-74
2021/10/14 12:18:26;;;;;;;10.60;4.95;;;;;;;;;;4286630;33;20212;-73
2021/10/14 12:20:54;;;;;;;18.23;5.32;;;;;;;;;;4286841;33;20167;-73
2021/10/14 12:23:26;;;;;;;9.63;5.22;;;;;;;;;;4288933;33;20176;-73
2021/10/14 12:25:51;;;;;;;7.95;4.03;;;;;;;;;;4301488;33;20159;-73
2021/10/14 12:28:25;;;;;;;16.37;4.75;;;;;;;;;;4300899;33;20172;-73
2021/10/14 12:31:12;;;;;;;13.30;5.10;;;;;;;;;;4301154;33;20219;-73
2021/10/14 12:33:39;;;;;;;20.20;6.10;;;;;;;;;;4294527;33;20199;-71
2021/10/14 12:36:07;;;;;;;9.77;4.43;;;;;;;;;;4301041;33;20148;-71
2021/10/14 12:38:48;;;;;;;15.18;6.70;;;;;;;;;;4301090;33;20140;-73
2021/10/14 12:41:39;;;;;;;18.20;12.80;;;;;;;;;;4301004;33;20175;-72
2021/10/14 12:44:09;;;;;;;11.20;4.20;;;;;;;;;;4301026;33;20156;-70
2021/10/14 12:47:03;;;;;;;6.65;4.05;;;;;;;;;;4301468;33;20215;-73
2021/10/14 12:49:50;;;;;;;;;;;;;;;;;;;;;
2021/10/14 12:52:17;;;;;;;6.85;3.75;;;;;;;;;;4303424;33;20144;-73
2021/10/14 12:54:43;;;;;;;5.37;3.20;;;;;;;;;;4303726;33;20141;-74
2021/10/14 12:59:56;;;;;;;6.78;3.78;;;;;;;;;;4293162;33;20587;-73
2021/10/14 13:02:21;;;;;;;9.57;4.50;;;;;;;;;;4290233;33;20183;-73
2021/10/14 13:07:34;;;;;;;11.25;4.57;;;;;;;;;;4304027;33;20259;-73
2021/10/14 13:10:34;;;;;;;7.45;3.87;;;;;;;;;;4303659;33;20129;-74
2021/10/14 13:13:01;;;;;;;5.65;3.17;;;;;;;;;;4300914;33;20183;-73
2021/10/14 13:15:26;;;;;;;8.45;3.55;;;;;;;;;;4289859;33;20268;-74
2021/10/14 13:17:52;;;;;;;12.83;3.73;;;;;;;;;;4303497;33;20144;-75
2021/10/14 13:20:19;;;;;;;8.07;4.50;;;;;;;;;;4303413;33;20161;-72
2021/10/14 13:22:44;;;;;;;9.88;5.07;;;;;;;;;;4303103;33;20159;-74
2021/10/14 13:25:10;;;;;;;9.63;4.82;;;;;;;;;;4292576;33;20156;-70
2021/10/14 13:27:35;;;;;;;11.52;6.18;;;;;;;;;;4289029;33;20167;-73
2021/10/14 13:30:00;;;;;;;14.45;5.87;;;;;;;;;;4289369;33;20167;-73
2021/10/14 13:32:25;;;;;;;8.70;5.05;;;;;;;;;;4288189;33;20204;-73
2021/10/14 13:34:51;;;;;;;17.37;7.47;;;;;;;;;;4288349;33;20133;-73
2021/10/14 13:37:20;;;;;;;10.60;5.32;;;;;;;;;;4275326;33;20684;-73
2021/10/14 13:40:10;;;;;;;9.77;4.97;;;;;;;;;;4288766;33;20148;-73
2021/10/14 13:42:38;;;;;;;9.75;5.20;;;;;;;;;;4288838;33;20504;-72
2021/10/14 13:45:05;;;;;;;12.40;5.55;;;;;;;;;;4288404;33;20148;-74
2021/10/14 13:47:31;;;;;;;7.85;4.55;;;;;;;;;;4274431;33;20194;-74
2021/10/14 13:49:57;;;;;;;7.15;5.15;;;;;;;;;;4273920;33;20587;-74
2021/10/14 13:52:22;;;;;;;4.20;3.30;;;;;;;;;;4260637;33;20164;-73
2021/10/14 13:54:59;;;;;;;9.73;5.40;;;;;;;;;;4273847;33;20207;-74
2021/10/14 13:57:24;;;;;;;10.05;4.68;;;;;;;;;;4274735;33;20217;-74
2021/10/14 13:59:50;;;;;;;9.38;5.12;;;;;;;;;;4260347;33;20173;-72
2021/10/14 14:02:16;;;;;;;11.98;5.75;;;;;;;;;;4273689;33;20208;-74
2021/10/14 14:04:41;;;;;;;14.05;5.37;;;;;;;;;;4272680;33;20191;-73
2021/10/14 14:07:06;;;;;;;9.30;5.15;;;;;;;;;;4261326;33;20201;-73
2021/10/14 14:09:33;;;;;;;9.98;4.68;;;;;;;;;;4274172;33;20138;-74
2021/10/14 14:11:58;;;;;;;74.50;44.55;;;;;;;;;;4273887;33;20137;-73
2021/10/14 14:14:23;;;;;;;9.85;5.30;;;;;;;;;;4273548;33;20481;-74
2021/10/14 14:16:49;;;;;;;48.92;22.95;;;;;;;;;;4273773;33;20137;-75
2021/10/14 14:19:17;;;;;;;37.00;25.02;;;;;;;;;;4273745;33;20149;-75
2021/10/14 14:21:45;;;;;;;8.27;4.65;;;;;;;;;;4274011;33;20157;-74
2021/10/14 14:24:11;;;;;;;10.27;5.28;;;;;;;;;;4265047;33;20202;-74
2021/10/14 14:26:57;;;;;;;8.68;4.47;;;;;;;;;;4288156;33;20183;-74
2021/10/14 14:29:22;;;;;;;11.80;4.57;;;;;;;;;;4288331;33;20133;-73
2021/10/14 14:31:50;;;;;;;7.32;4.15;;;;;;;;;;4287461;33;20461;-72
2021/10/14 14:34:15;;;;;;;10.07;4.43;;;;;;;;;;4288344;33;20221;-74
2021/10/14 14:36:41;;;;;;;9.18;4.60;;;;;;;;;;4274970;33;20165;-74
2021/10/14 14:39:06;;;;;;;9.05;3.22;;;;;;;;;;4287981;33;20264;-75
2021/10/14 14:41:39;;;;;;;6.15;2.87;;;;;;;;;;4287636;33;20599;-72
2021/10/14 14:44:04;;;;;;;6.03;3.12;;;;;;;;;;4288446;33;20144;-74
2021/10/14 14:46:30;;;;;;;9.80;6.25;;;;;;;;;;4287753;33;20585;-74
2021/10/14 14:48:59;;;;;;;5.27;2.87;;;;;;;;;;4287571;33;20137;-73
2021/10/14 14:51:24;;;;;;;5.78;3.37;;;;;;;;;;4287662;33;20551;-73
2021/10/14 14:53:57;;;;;;;5.37;2.67;;;;;;;;;;4287903;33;20172;-72
2021/10/14 14:56:22;;;;;;;7.90;3.12;;;;;;;;;;4287581;33;20138;-73
2021/10/14 14:58:48;;;;;;;6.68;4.37;;;;;;;;;;4287795;33;20236;-75
2021/10/14 15:01:16;;;;;;;3.78;2.45;;;;;;;;;;4274812;33;20176;-74
2021/10/14 15:03:45;;;;;;;4.47;2.45;;;;;;;;;;4288007;33;20167;-72
2021/10/14 15:06:14;;;;;;;4.95;2.50;;;;;;;;;;4287150;33;20192;-73
2021/10/14 15:08:39;;;;;;;5.85;2.75;;;;;;;;;;4287906;33;20183;-74
2021/10/14 15:11:04;;;;;;;6.37;3.15;;;;;;;;;;4273396;33;20164;-73
2021/10/14 15:13:30;;;;;;;5.25;2.92;;;;;;;;;;4287512;33;20141;-73
2021/10/14 15:15:58;;;;;;;4.62;2.90;;;;;;;;;;4287433;33;20164;-73
2021/10/14 15:18:44;;;;;;;6.10;3.35;;;;;;;;;;4287351;33;20212;-74
2021/10/14 15:21:10;;;;;;;5.20;3.35;;;;;;;;;;4286381;33;20582;-74
2021/10/14 15:23:35;;;;;;;5.43;2.97;;;;;;;;;;4286960;33;20163;-74
2021/10/14 15:26:01;;;;;;;5.93;2.78;;;;;;;;;;4286093;33;20235;-74
2021/10/14 15:28:29;;;;;;;5.80;3.12;;;;;;;;;;4274374;33;20191;-73
2021/10/14 15:30:57;;;;;;;4.15;2.80;;;;;;;;;;4287199;33;20145;-73
2021/10/14 15:33:22;;;;;;;5.85;3.53;;;;;;;;;;4286056;33;20219;-73
2021/10/14 15:35:57;;;;;;;8.30;3.50;;;;;;;;;;4287046;33;20141;-74
2021/10/14 15:38:23;;;;;;;6.12;4.15;;;;;;;;;;4297088;33;20151;-73
2021/10/14 15:40:49;;;;;;;4.62;3.10;;;;;;;;;;4303083;33;20684;-72
2021/10/14 15:43:14;;;;;;;11.43;5.37;;;;;;;;;;4315632;33;20190;-74
2021/10/14 15:45:42;;;;;;;18.92;11.15;;;;;;;;;;4299445;33;20175;-74
2021/10/14 15:48:14;;;;;;;5.47;3.42;;;;;;;;;;4288507;33;20196;-74
2021/10/14 15:50:49;;;;;;;;;;;;;;;;;;;;;
2021/10/14 15:53:23;;;;;;;6.53;3.62;;;;;;;;;;4301783;33;20128;-75
2021/10/14 15:55:59;;;;;;;5.40;3.92;;;;;;;;;;4288434;33;20165;-74
2021/10/14 15:58:34;;;;;;;6.57;3.60;;;;;;;;;;4288384;33;20629;-74
2021/10/14 16:01:02;;;;;;;7.43;3.62;;;;;;;;;;4288178;33;20169;-74
2021/10/14 16:03:51;;;;;;;5.37;3.30;;;;;;;;;;4288026;33;20204;-74
2021/10/14 16:06:16;;;;;;;6.43;3.67;;;;;;;;;;4294567;33;20184;-72
2021/10/14 16:08:45;;;;;;;7.30;3.70;;;;;;;;;;4287896;33;20190;-74
2021/10/14 16:11:10;;;;;;;9.98;3.85;;;;;;;;;;4287767;33;20200;-73
2021/10/14 16:13:36;;;;;;;8.82;3.90;;;;;;;;;;4288452;33;20722;-75
2021/10/14 16:16:05;;;;;;;6.12;3.60;;;;;;;;;;4287618;33;20192;-74
2021/10/14 16:18:52;;;;;;;9.23;4.85;;;;;;;;;;4287700;33;20222;-73
2021/10/14 16:21:26;;;;;;;9.73;4.43;;;;;;;;;;4300879;33;20611;-74
2021/10/14 16:24:00;;;;;;;9.25;4.20;;;;;;;;;;4290935;33;21377;-74
2021/10/14 16:26:38;;;;;;;;;;;;;;;;;;;;;
2021/10/14 16:29:13;;;;;;;10.40;4.20;;;;;;;;;;4295559;33;20475;-74
2021/10/14 16:31:38;;;;;;;8.20;5.10;;;;;;;;;;4290656;33;20151;-73
2021/10/14 16:36:31;;;;;;;8.77;5.10;;;;;;;;;;4304457;33;20137;-75
2021/10/14 16:38:57;;;;;;;9.43;5.12;;;;;;;;;;4303708;33;20239;-74
2021/10/14 16:44:10;;;;;;;7.85;5.47;;;;;;;;;;4300957;33;20547;-74
2021/10/14 16:46:35;;;;;;;9.73;5.95;;;;;;;;;;4290315;33;20207;-73
2021/10/14 16:49:10;;;;;;;11.15;5.95;;;;;;;;;;4290223;33;20152;-74
2021/10/14 16:51:38;;;;;;;8.43;5.97;;;;;;;;;;4303999;33;20146;-75
2021/10/14 16:54:03;;;;;;;10.27;6.03;;;;;;;;;;4290247;33;20164;-76